Terminal Aerodrome Forecast
Issued by NWS

Home | Current Version | Previous Version | Text Only | Print | Product List | Glossary On
Versions: 1 2 3 4 5 6 7 8 9 10 11 12 13 14 15 16 17
000
FTUS43 KOAX 230839 AAB
TAFCDR
TAF AMD
KCDR 230839Z 2309/2406 18010KT P6SM -TSRA SCT050CB BKN150
     FM230930 18006KT P6SM FEW250
     FM231700 31011KT P6SM FEW250
     FM232000 34011KT P6SM SKC
     FM240300 VRB03KT P6SM SKC=

USA.gov is the U.S. government's official web portal to all federal, state and local government web resources and services.